sensor_id;sensor_type;location;lat;lon;timestamp;temperature;humidity
3332;DHT22;1678;50.94845400;5.30809100;2022-11-04T00:01:57;10.00;99.90
3332;DHT22;1678;50.94845400;5.30809100;2022-11-04T00:04:26;10.00;99.90
3332;DHT22;1678;50.94845400;5.30809100;2022-11-04T00:06:56;9.90;99.90
3332;DHT22;1678;50.94845400;5.30809100;2022-11-04T00:09:26;9.90;99.90
3332;DHT22;1678;50.94845400;5.30809100;2022-11-04T00:11:55;9.90;99.90
3332;DHT22;1678;50.94845400;5.30809100;2022-11-04T00:14:41;9.90;99.90
3332;DHT22;1678;50.94845400;5.30809100;2022-11-04T00:17:10;9.80;99.90
3332;DHT22;1678;50.94845400;5.30809100;2022-11-04T00:19:49;9.80;99.90
3332;DHT22;1678;50.94845400;5.30809100;2022-11-04T00:22:37;9.70;99.90
3332;DHT22;1678;50.94845400;5.30809100;2022-11-04T00:25:23;9.70;99.90
3332;DHT22;1678;50.94845400;5.30809100;2022-11-04T00:28:11;9.60;99.90
3332;DHT22;1678;50.94845400;5.30809100;2022-11-04T00:30:57;9.70;99.90
3332;DHT22;1678;50.94845400;5.30809100;2022-11-04T00:33:47;9.60;99.90
3332;DHT22;1678;50.94845400;5.30809100;2022-11-04T00:36:15;9.60;99.90
3332;DHT22;1678;50.94845400;5.30809100;2022-11-04T00:38:44;9.50;99.90
3332;DHT22;1678;50.94845400;5.30809100;2022-11-04T00:41:12;9.50;99.90
3332;DHT22;1678;50.94845400;5.30809100;2022-11-04T00:43:54;9.50;99.90
3332;DHT22;1678;50.94845400;5.30809100;2022-11-04T00:46:23;9.50;99.90
3332;DHT22;1678;50.94845400;5.30809100;2022-11-04T00:48:51;9.40;99.90
3332;DHT22;1678;50.94845400;5.30809100;2022-11-04T00:51:19;9.40;99.90
3332;DHT22;1678;50.94845400;5.30809100;2022-11-04T00:53:49;9.40;99.90
3332;DHT22;1678;50.94845400;5.30809100;2022-11-04T00:56:17;9.40;99.90
3332;DHT22;1678;50.94845400;5.30809100;2022-11-04T00:58:46;9.40;99.90
3332;DHT22;1678;50.94845400;5.30809100;2022-11-04T01:01:16;9.40;99.90
3332;DHT22;1678;50.94845400;5.30809100;2022-11-04T01:03:46;9.30;99.90
3332;DHT22;1678;50.94845400;5.30809100;2022-11-04T01:06:14;9.30;99.90
3332;DHT22;1678;50.94845400;5.30809100;2022-11-04T01:08:42;9.30;99.90
3332;DHT22;1678;50.94845400;5.30809100;2022-11-04T01:11:12;9.30;99.90
3332;DHT22;1678;50.94845400;5.30809100;2022-11-04T01:13:40;9.30;99.90
3332;DHT22;1678;50.94845400;5.30809100;2022-11-04T01:16:10;9.20;99.90
3332;DHT22;1678;50.94845400;5.30809100;2022-11-04T01:18:38;9.20;99.90
3332;DHT22;1678;50.94845400;5.30809100;2022-11-04T01:21:09;9.20;99.90
3332;DHT22;1678;50.94845400;5.30809100;2022-11-04T01:23:38;9.20;99.90
3332;DHT22;1678;50.94845400;5.30809100;2022-11-04T01:26:06;9.10;99.90
3332;DHT22;1678;50.94845400;5.30809100;2022-11-04T01:28:36;9.10;99.90
3332;DHT22;1678;50.94845400;5.30809100;2022-11-04T01:31:05;9.10;99.90
3332;DHT22;1678;50.94845400;5.30809100;2022-11-04T01:33:33;9.10;99.90
3332;DHT22;1678;50.94845400;5.30809100;2022-11-04T01:36:02;9.00;99.90
3332;DHT22;1678;50.94845400;5.30809100;2022-11-04T01:38:31;9.00;99.90
3332;DHT22;1678;50.94845400;5.30809100;2022-11-04T01:40:59;9.00;99.90
3332;DHT22;1678;50.94845400;5.30809100;2022-11-04T01:43:42;9.10;99.90
3332;DHT22;1678;50.94845400;5.30809100;2022-11-04T01:46:15;9.00;99.90
3332;DHT22;1678;50.94845400;5.30809100;2022-11-04T01:48:44;9.00;99.90
3332;DHT22;1678;50.94845400;5.30809100;2022-11-04T01:51:13;8.90;99.90
3332;DHT22;1678;50.94845400;5.30809100;2022-11-04T01:53:42;8.90;99.90
3332;DHT22;1678;50.94845400;5.30809100;2022-11-04T01:56:12;8.90;99.90
3332;DHT22;1678;50.94845400;5.30809100;2022-11-04T01:58:46;8.90;99.90
3332;DHT22;1678;50.94845400;5.30809100;2022-11-04T02:01:15;8.90;99.90
3332;DHT22;1678;50.94845400;5.30809100;2022-11-04T02:03:48;8.80;99.90
3332;DHT22;1678;50.94845400;5.30809100;2022-11-04T02:06:18;8.90;99.90
3332;DHT22;1678;50.94845400;5.30809100;2022-11-04T02:08:47;8.90;99.90
3332;DHT22;1678;50.94845400;5.30809100;2022-11-04T02:11:16;8.90;99.90
3332;DHT22;1678;50.94845400;5.30809100;2022-11-04T02:13:59;8.90;99.90
3332;DHT22;1678;50.94845400;5.30809100;2022-11-04T02:16:34;8.90;99.90
3332;DHT22;1678;50.94845400;5.30809100;2022-11-04T02:19:16;8.90;99.90
3332;DHT22;1678;50.94845400;5.30809100;2022-11-04T02:22:11;9.00;99.90
3332;DHT22;1678;50.94845400;5.30809100;2022-11-04T02:27:56;9.10;99.90
3332;DHT22;1678;50.94845400;5.30809100;2022-11-04T02:30:34;9.10;99.90
3332;DHT22;1678;50.94845400;5.30809100;2022-11-04T02:33:16;9.10;99.90
3332;DHT22;1678;50.94845400;5.30809100;2022-11-04T02:35:53;9.10;99.90
3332;DHT22;1678;50.94845400;5.30809100;2022-11-04T02:38:32;9.00;99.90
3332;DHT22;1678;50.94845400;5.30809100;2022-11-04T02:41:10;8.90;99.90
3332;DHT22;1678;50.94845400;5.30809100;2022-11-04T02:43:47;8.90;99.90
3332;DHT22;1678;50.94845400;5.30809100;2022-11-04T02:46:23;8.90;99.90
3332;DHT22;1678;50.94845400;5.30809100;2022-11-04T02:48:54;8.90;99.90
3332;DHT22;1678;50.94845400;5.30809100;2022-11-04T02:51:28;8.90;99.90
3332;DHT22;1678;50.94845400;5.30809100;2022-11-04T02:54:02;8.80;99.90
3332;DHT22;1678;50.94845400;5.30809100;2022-11-04T02:56:35;8.90;99.90
3332;DHT22;1678;50.94845400;5.30809100;2022-11-04T02:59:08;8.80;99.90
3332;DHT22;1678;50.94845400;5.30809100;2022-11-04T03:01:41;8.80;99.90
3332;DHT22;1678;50.94845400;5.30809100;2022-11-04T03:04:13;8.70;99.90
3332;DHT22;1678;50.94845400;5.30809100;2022-11-04T03:06:44;8.70;99.90
3332;DHT22;1678;50.94845400;5.30809100;2022-11-04T03:09:14;8.70;99.90
3332;DHT22;1678;50.94845400;5.30809100;2022-11-04T03:11:45;8.70;99.90
3332;DHT22;1678;50.94845400;5.30809100;2022-11-04T03:14:17;8.70;99.90
3332;DHT22;1678;50.94845400;5.30809100;2022-11-04T03:16:48;8.70;99.90
3332;DHT22;1678;50.94845400;5.30809100;2022-11-04T03:19:23;8.60;99.90
3332;DHT22;1678;50.94845400;5.30809100;2022-11-04T03:21:56;8.60;99.90
3332;DHT22;1678;50.94845400;5.30809100;2022-11-04T03:24:26;8.60;99.90
3332;DHT22;1678;50.94845400;5.30809100;2022-11-04T03:26:57;8.60;99.90
3332;DHT22;1678;50.94845400;5.30809100;2022-11-04T03:29:30;8.50;99.90
3332;DHT22;1678;50.94845400;5.30809100;2022-11-04T03:32:06;8.60;99.90
3332;DHT22;1678;50.94845400;5.30809100;2022-11-04T03:34:37;8.60;99.90
3332;DHT22;1678;50.94845400;5.30809100;2022-11-04T03:37:05;8.50;99.90
3332;DHT22;1678;50.94845400;5.30809100;2022-11-04T03:39:33;8.50;99.90
3332;DHT22;1678;50.94845400;5.30809100;2022-11-04T03:42:05;8.60;99.90
3332;DHT22;1678;50.94845400;5.30809100;2022-11-04T03:44:47;8.60;99.90
3332;DHT22;1678;50.94845400;5.30809100;2022-11-04T03:47:19;8.60;99.90
3332;DHT22;1678;50.94845400;5.30809100;2022-11-04T03:49:50;8.70;99.90
3332;DHT22;1678;50.94845400;5.30809100;2022-11-04T03:52:19;8.70;99.90
3332;DHT22;1678;50.94845400;5.30809100;2022-11-04T03:54:47;8.70;99.90
3332;DHT22;1678;50.94845400;5.30809100;2022-11-04T03:57:32;8.70;99.90
3332;DHT22;1678;50.94845400;5.30809100;2022-11-04T04:00:08;8.70;99.90
3332;DHT22;1678;50.94845400;5.30809100;2022-11-04T04:02:54;8.70;99.90
3332;DHT22;1678;50.94845400;5.30809100;2022-11-04T04:05:28;8.70;99.90
3332;DHT22;1678;50.94845400;5.30809100;2022-11-04T04:08:03;8.70;99.90
3332;DHT22;1678;50.94845400;5.30809100;2022-11-04T04:10:39;8.70;99.90
3332;DHT22;1678;50.94845400;5.30809100;2022-11-04T04:13:22;8.70;99.90
3332;DHT22;1678;50.94845400;5.30809100;2022-11-04T04:15:56;8.70;99.90
3332;DHT22;1678;50.94845400;5.30809100;2022-11-04T04:18:34;8.60;99.90
3332;DHT22;1678;50.94845400;5.30809100;2022-11-04T04:21:07;8.60;99.90
3332;DHT22;1678;50.94845400;5.30809100;2022-11-04T04:23:36;8.60;99.90
3332;DHT22;1678;50.94845400;5.30809100;2022-11-04T04:26:24;8.50;99.90
3332;DHT22;1678;50.94845400;5.30809100;2022-11-04T04:29:10;8.40;99.90
3332;DHT22;1678;50.94845400;5.30809100;2022-11-04T04:31:38;8.30;99.90
3332;DHT22;1678;50.94845400;5.30809100;2022-11-04T04:34:19;8.30;99.90
3332;DHT22;1678;50.94845400;5.30809100;2022-11-04T04:36:52;8.30;99.90
3332;DHT22;1678;50.94845400;5.30809100;2022-11-04T04:39:23;8.20;99.90
3332;DHT22;1678;50.94845400;5.30809100;2022-11-04T04:42:10;8.20;99.90
3332;DHT22;1678;50.94845400;5.30809100;2022-11-04T04:44:56;8.20;99.90
3332;DHT22;1678;50.94845400;5.30809100;2022-11-04T04:47:31;8.30;99.90
3332;DHT22;1678;50.94845400;5.30809100;2022-11-04T04:50:01;8.30;99.90
3332;DHT22;1678;50.94845400;5.30809100;2022-11-04T04:52:31;8.40;99.90
3332;DHT22;1678;50.94845400;5.30809100;2022-11-04T04:55:00;8.50;99.90
3332;DHT22;1678;50.94845400;5.30809100;2022-11-04T04:57:28;8.60;99.90
3332;DHT22;1678;50.94845400;5.30809100;2022-11-04T04:59:56;8.70;99.90
3332;DHT22;1678;50.94845400;5.30809100;2022-11-04T05:02:24;8.70;99.90
3332;DHT22;1678;50.94845400;5.30809100;2022-11-04T05:04:52;8.70;99.90
3332;DHT22;1678;50.94845400;5.30809100;2022-11-04T05:07:23;8.70;99.90
3332;DHT22;1678;50.94845400;5.30809100;2022-11-04T05:09:51;8.80;99.90
3332;DHT22;1678;50.94845400;5.30809100;2022-11-04T05:12:19;8.90;99.90
3332;DHT22;1678;50.94845400;5.30809100;2022-11-04T05:14:47;8.90;99.90
3332;DHT22;1678;50.94845400;5.30809100;2022-11-04T05:17:15;9.00;99.90
3332;DHT22;1678;50.94845400;5.30809100;2022-11-04T05:19:43;9.00;99.90
3332;DHT22;1678;50.94845400;5.30809100;2022-11-04T05:22:11;9.00;99.90
3332;DHT22;1678;50.94845400;5.30809100;2022-11-04T05:24:41;9.10;99.90
3332;DHT22;1678;50.94845400;5.30809100;2022-11-04T05:27:09;9.00;99.90
3332;DHT22;1678;50.94845400;5.30809100;2022-11-04T05:29:37;9.00;99.90
3332;DHT22;1678;50.94845400;5.30809100;2022-11-04T05:32:05;9.10;99.90
3332;DHT22;1678;50.94845400;5.30809100;2022-11-04T05:34:33;9.00;99.90
3332;DHT22;1678;50.94845400;5.30809100;2022-11-04T05:37:01;9.10;99.90
3332;DHT22;1678;50.94845400;5.30809100;2022-11-04T05:39:29;9.10;99.90
3332;DHT22;1678;50.94845400;5.30809100;2022-11-04T05:41:59;9.20;99.90
3332;DHT22;1678;50.94845400;5.30809100;2022-11-04T05:44:27;9.20;99.90
3332;DHT22;1678;50.94845400;5.30809100;2022-11-04T05:46:55;9.20;99.90
3332;DHT22;1678;50.94845400;5.30809100;2022-11-04T05:49:23;9.20;99.90
3332;DHT22;1678;50.94845400;5.30809100;2022-11-04T05:51:51;9.20;99.90
3332;DHT22;1678;50.94845400;5.30809100;2022-11-04T05:54:19;9.20;99.90
3332;DHT22;1678;50.94845400;5.30809100;2022-11-04T05:56:47;9.20;99.90
3332;DHT22;1678;50.94845400;5.30809100;2022-11-04T05:59:16;9.20;99.90
3332;DHT22;1678;50.94845400;5.30809100;2022-11-04T06:01:45;9.20;99.90
3332;DHT22;1678;50.94845400;5.30809100;2022-11-04T06:04:17;9.20;99.90
3332;DHT22;1678;50.94845400;5.30809100;2022-11-04T06:06:45;9.20;99.90
3332;DHT22;1678;50.94845400;5.30809100;2022-11-04T06:09:13;9.10;99.90
3332;DHT22;1678;50.94845400;5.30809100;2022-11-04T06:11:41;9.10;99.90
3332;DHT22;1678;50.94845400;5.30809100;2022-11-04T06:14:10;9.10;99.90
3332;DHT22;1678;50.94845400;5.30809100;2022-11-04T06:16:45;9.10;99.90
3332;DHT22;1678;50.94845400;5.30809100;2022-11-04T06:19:13;9.00;99.90
3332;DHT22;1678;50.94845400;5.30809100;2022-11-04T06:21:42;9.00;99.90
3332;DHT22;1678;50.94845400;5.30809100;2022-11-04T06:24:10;8.90;99.90
3332;DHT22;1678;50.94845400;5.30809100;2022-11-04T06:26:38;8.90;99.90
3332;DHT22;1678;50.94845400;5.30809100;2022-11-04T06:29:06;8.80;99.90
3332;DHT22;1678;50.94845400;5.30809100;2022-11-04T06:31:35;8.70;99.90
3332;DHT22;1678;50.94845400;5.30809100;2022-11-04T06:34:04;8.70;99.90
3332;DHT22;1678;50.94845400;5.30809100;2022-11-04T06:36:33;8.80;99.90
3332;DHT22;1678;50.94845400;5.30809100;2022-11-04T06:39:02;8.80;99.90
3332;DHT22;1678;50.94845400;5.30809100;2022-11-04T06:41:31;8.90;99.90
3332;DHT22;1678;50.94845400;5.30809100;2022-11-04T06:43:59;8.90;99.90
3332;DHT22;1678;50.94845400;5.30809100;2022-11-04T06:46:30;8.90;99.90
3332;DHT22;1678;50.94845400;5.30809100;2022-11-04T06:49:01;8.90;99.90
3332;DHT22;1678;50.94845400;5.30809100;2022-11-04T06:51:31;9.00;99.90
3332;DHT22;1678;50.94845400;5.30809100;2022-11-04T06:53:59;9.10;99.90
3332;DHT22;1678;50.94845400;5.30809100;2022-11-04T06:56:27;9.10;99.90
3332;DHT22;1678;50.94845400;5.30809100;2022-11-04T06:58:56;9.10;99.90
3332;DHT22;1678;50.94845400;5.30809100;2022-11-04T07:01:26;9.10;99.90
3332;DHT22;1678;50.94845400;5.30809100;2022-11-04T07:03:56;9.20;99.90
3332;DHT22;1678;50.94845400;5.30809100;2022-11-04T07:06:25;9.30;99.90
3332;DHT22;1678;50.94845400;5.30809100;2022-11-04T07:08:56;9.30;99.90
3332;DHT22;1678;50.94845400;5.30809100;2022-11-04T07:11:26;9.40;99.90
3332;DHT22;1678;50.94845400;5.30809100;2022-11-04T07:13:55;9.40;99.90
3332;DHT22;1678;50.94845400;5.30809100;2022-11-04T07:16:23;9.40;99.90
3332;DHT22;1678;50.94845400;5.30809100;2022-11-04T07:18:53;9.50;99.90
3332;DHT22;1678;50.94845400;5.30809100;2022-11-04T07:21:21;9.50;99.90
3332;DHT22;1678;50.94845400;5.30809100;2022-11-04T07:23:49;9.60;99.90
3332;DHT22;1678;50.94845400;5.30809100;2022-11-04T07:26:19;9.60;99.90
3332;DHT22;1678;50.94845400;5.30809100;2022-11-04T07:28:47;9.70;99.90
3332;DHT22;1678;50.94845400;5.30809100;2022-11-04T07:31:15;9.80;99.90
3332;DHT22;1678;50.94845400;5.30809100;2022-11-04T07:33:43;9.80;99.90
3332;DHT22;1678;50.94845400;5.30809100;2022-11-04T07:36:16;9.80;99.90
3332;DHT22;1678;50.94845400;5.30809100;2022-11-04T07:38:45;9.90;99.90
3332;DHT22;1678;50.94845400;5.30809100;2022-11-04T07:41:13;10.00;99.90
3332;DHT22;1678;50.94845400;5.30809100;2022-11-04T07:43:47;10.00;99.90
3332;DHT22;1678;50.94845400;5.30809100;2022-11-04T07:46:16;10.00;99.90
3332;DHT22;1678;50.94845400;5.30809100;2022-11-04T07:48:44;10.10;99.90
3332;DHT22;1678;50.94845400;5.30809100;2022-11-04T07:51:14;10.10;99.90
3332;DHT22;1678;50.94845400;5.30809100;2022-11-04T07:53:43;10.20;99.90
3332;DHT22;1678;50.94845400;5.30809100;2022-11-04T07:56:12;10.10;99.90
3332;DHT22;1678;50.94845400;5.30809100;2022-11-04T07:58:41;10.20;99.90
3332;DHT22;1678;50.94845400;5.30809100;2022-11-04T08:01:13;10.10;99.90
3332;DHT22;1678;50.94845400;5.30809100;2022-11-04T08:03:42;10.20;99.90
3332;DHT22;1678;50.94845400;5.30809100;2022-11-04T08:06:12;10.30;99.90
3332;DHT22;1678;50.94845400;5.30809100;2022-11-04T08:08:40;10.30;99.90
3332;DHT22;1678;50.94845400;5.30809100;2022-11-04T08:11:10;10.40;99.90
3332;DHT22;1678;50.94845400;5.30809100;2022-11-04T08:13:44;10.30;99.90
3332;DHT22;1678;50.94845400;5.30809100;2022-11-04T08:16:16;10.30;99.90
3332;DHT22;1678;50.94845400;5.30809100;2022-11-04T08:18:45;10.40;99.90
3332;DHT22;1678;50.94845400;5.30809100;2022-11-04T08:21:14;10.30;99.90
3332;DHT22;1678;50.94845400;5.30809100;2022-11-04T08:23:42;10.30;99.90
3332;DHT22;1678;50.94845400;5.30809100;2022-11-04T08:26:14;10.40;99.90
3332;DHT22;1678;50.94845400;5.30809100;2022-11-04T08:28:44;10.40;99.90
3332;DHT22;1678;50.94845400;5.30809100;2022-11-04T08:31:16;10.50;99.90
3332;DHT22;1678;50.94845400;5.30809100;2022-11-04T08:33:44;10.70;99.90
3332;DHT22;1678;50.94845400;5.30809100;2022-11-04T08:36:14;10.80;99.90
3332;DHT22;1678;50.94845400;5.30809100;2022-11-04T08:38:43;10.80;99.90
3332;DHT22;1678;50.94845400;5.30809100;2022-11-04T08:41:13;10.80;99.90
3332;DHT22;1678;50.94845400;5.30809100;2022-11-04T08:43:42;10.90;99.90
3332;DHT22;1678;50.94845400;5.30809100;2022-11-04T08:46:11;11.00;99.90
3332;DHT22;1678;50.94845400;5.30809100;2022-11-04T08:48:41;11.00;99.90
3332;DHT22;1678;50.94845400;5.30809100;2022-11-04T08:51:12;10.90;99.90
3332;DHT22;1678;50.94845400;5.30809100;2022-11-04T08:53:41;10.90;99.90
3332;DHT22;1678;50.94845400;5.30809100;2022-11-04T08:56:20;10.90;99.90
3332;DHT22;1678;50.94845400;5.30809100;2022-11-04T08:58:48;10.90;99.90
3332;DHT22;1678;50.94845400;5.30809100;2022-11-04T09:01:17;10.90;99.90
3332;DHT22;1678;50.94845400;5.30809100;2022-11-04T09:03:48;11.00;99.90
3332;DHT22;1678;50.94845400;5.30809100;2022-11-04T09:06:19;11.10;99.90
3332;DHT22;1678;50.94845400;5.30809100;2022-11-04T09:08:48;11.20;99.90
3332;DHT22;1678;50.94845400;5.30809100;2022-11-04T09:11:16;11.30;99.90
3332;DHT22;1678;50.94845400;5.30809100;2022-11-04T09:13:45;11.30;99.90
3332;DHT22;1678;50.94845400;5.30809100;2022-11-04T09:16:14;11.40;99.90
3332;DHT22;1678;50.94845400;5.30809100;2022-11-04T09:18:42;11.50;99.90
3332;DHT22;1678;50.94845400;5.30809100;2022-11-04T09:21:12;11.50;99.90
3332;DHT22;1678;50.94845400;5.30809100;2022-11-04T09:23:40;11.50;99.90
3332;DHT22;1678;50.94845400;5.30809100;2022-11-04T09:26:10;11.70;99.90
3332;DHT22;1678;50.94845400;5.30809100;2022-11-04T09:28:39;11.70;99.90
3332;DHT22;1678;50.94845400;5.30809100;2022-11-04T09:31:08;11.70;99.90
3332;DHT22;1678;50.94845400;5.30809100;2022-11-04T09:33:37;11.70;99.90
3332;DHT22;1678;50.94845400;5.30809100;2022-11-04T09:36:05;11.80;99.90
3332;DHT22;1678;50.94845400;5.30809100;2022-11-04T09:38:37;11.70;99.90
3332;DHT22;1678;50.94845400;5.30809100;2022-11-04T09:41:20;11.60;99.90
3332;DHT22;1678;50.94845400;5.30809100;2022-11-04T09:43:58;11.60;99.90
3332;DHT22;1678;50.94845400;5.30809100;2022-11-04T09:46:31;11.70;99.90
3332;DHT22;1678;50.94845400;5.30809100;2022-11-04T09:49:02;11.70;99.90
3332;DHT22;1678;50.94845400;5.30809100;2022-11-04T09:51:32;11.70;99.90
3332;DHT22;1678;50.94845400;5.30809100;2022-11-04T09:54:24;11.60;99.90
3332;DHT22;1678;50.94845400;5.30809100;2022-11-04T09:56:53;11.50;99.90
3332;DHT22;1678;50.94845400;5.30809100;2022-11-04T09:59:26;11.60;99.90
3332;DHT22;1678;50.94845400;5.30809100;2022-11-04T10:02:12;11.70;99.90
3332;DHT22;1678;50.94845400;5.30809100;2022-11-04T10:04:55;11.90;99.90
3332;DHT22;1678;50.94845400;5.30809100;2022-11-04T10:07:39;12.00;99.90
3332;DHT22;1678;50.94845400;5.30809100;2022-11-04T10:10:17;11.90;99.90
3332;DHT22;1678;50.94845400;5.30809100;2022-11-04T10:13:02;11.70;99.90
3332;DHT22;1678;50.94845400;5.30809100;2022-11-04T10:15:50;11.70;99.90
3332;DHT22;1678;50.94845400;5.30809100;2022-11-04T10:18:33;11.80;99.90
3332;DHT22;1678;50.94845400;5.30809100;2022-11-04T10:21:09;12.00;99.90
3332;DHT22;1678;50.94845400;5.30809100;2022-11-04T10:23:42;12.00;99.90
3332;DHT22;1678;50.94845400;5.30809100;2022-11-04T10:26:15;12.10;99.90
3332;DHT22;1678;50.94845400;5.30809100;2022-11-04T10:28:48;12.10;99.90
3332;DHT22;1678;50.94845400;5.30809100;2022-11-04T10:31:18;12.20;99.90
3332;DHT22;1678;50.94845400;5.30809100;2022-11-04T10:33:50;12.20;99.90
3332;DHT22;1678;50.94845400;5.30809100;2022-11-04T10:36:19;12.20;99.90
3332;DHT22;1678;50.94845400;5.30809100;2022-11-04T10:38:50;12.00;99.90
3332;DHT22;1678;50.94845400;5.30809100;2022-11-04T10:41:27;11.90;99.90
3332;DHT22;1678;50.94845400;5.30809100;2022-11-04T10:44:00;11.80;99.90
3332;DHT22;1678;50.94845400;5.30809100;2022-11-04T10:46:39;11.90;99.90
3332;DHT22;1678;50.94845400;5.30809100;2022-11-04T10:49:37;11.90;99.90
3332;DHT22;1678;50.94845400;5.30809100;2022-11-04T10:52:27;12.00;99.90
3332;DHT22;1678;50.94845400;5.30809100;2022-11-04T10:54:55;12.20;99.90
3332;DHT22;1678;50.94845400;5.30809100;2022-11-04T10:57:24;12.50;99.90
3332;DHT22;1678;50.94845400;5.30809100;2022-11-04T10:59:54;12.60;99.90
3332;DHT22;1678;50.94845400;5.30809100;2022-11-04T11:02:41;12.40;99.90
3332;DHT22;1678;50.94845400;5.30809100;2022-11-04T11:05:20;12.10;99.90
3332;DHT22;1678;50.94845400;5.30809100;2022-11-04T11:07:50;11.80;99.90
3332;DHT22;1678;50.94845400;5.30809100;2022-11-04T11:10:20;11.80;99.90
3332;DHT22;1678;50.94845400;5.30809100;2022-11-04T11:12:55;11.80;99.90
3332;DHT22;1678;50.94845400;5.30809100;2022-11-04T11:15:28;11.90;99.90
3332;DHT22;1678;50.94845400;5.30809100;2022-11-04T11:17:59;11.90;99.90
3332;DHT22;1678;50.94845400;5.30809100;2022-11-04T11:20:28;11.80;99.90
3332;DHT22;1678;50.94845400;5.30809100;2022-11-04T11:22:58;11.70;99.90
3332;DHT22;1678;50.94845400;5.30809100;2022-11-04T11:25:31;11.80;99.90
3332;DHT22;1678;50.94845400;5.30809100;2022-11-04T11:28:03;11.70;99.90
3332;DHT22;1678;50.94845400;5.30809100;2022-11-04T11:30:36;11.80;99.90
3332;DHT22;1678;50.94845400;5.30809100;2022-11-04T11:33:16;11.80;99.90
3332;DHT22;1678;50.94845400;5.30809100;2022-11-04T11:35:49;12.10;99.90
3332;DHT22;1678;50.94845400;5.30809100;2022-11-04T11:38:21;12.20;99.90
3332;DHT22;1678;50.94845400;5.30809100;2022-11-04T11:40:50;12.30;99.90
3332;DHT22;1678;50.94845400;5.30809100;2022-11-04T11:43:44;12.50;99.90
3332;DHT22;1678;50.94845400;5.30809100;2022-11-04T11:46:13;12.60;99.90
3332;DHT22;1678;50.94845400;5.30809100;2022-11-04T11:48:51;12.80;99.90
3332;DHT22;1678;50.94845400;5.30809100;2022-11-04T11:51:23;12.70;99.90
3332;DHT22;1678;50.94845400;5.30809100;2022-11-04T11:56:47;12.60;99.90
3332;DHT22;1678;50.94845400;5.30809100;2022-11-04T11:59:43;12.80;99.90
3332;DHT22;1678;50.94845400;5.30809100;2022-11-04T12:02:38;13.20;99.90
3332;DHT22;1678;50.94845400;5.30809100;2022-11-04T12:05:09;13.60;99.90
3332;DHT22;1678;50.94845400;5.30809100;2022-11-04T12:08:05;13.70;99.90
3332;DHT22;1678;50.94845400;5.30809100;2022-11-04T12:10:59;13.90;99.90
3332;DHT22;1678;50.94845400;5.30809100;2022-11-04T12:13:37;14.10;99.90
3332;DHT22;1678;50.94845400;5.30809100;2022-11-04T12:16:17;14.00;99.90
3332;DHT22;1678;50.94845400;5.30809100;2022-11-04T12:19:13;13.80;99.90
3332;DHT22;1678;50.94845400;5.30809100;2022-11-04T12:21:47;13.60;99.90
3332;DHT22;1678;50.94845400;5.30809100;2022-11-04T12:24:29;13.60;99.90
3332;DHT22;1678;50.94845400;5.30809100;2022-11-04T12:27:07;13.60;99.90
3332;DHT22;1678;50.94845400;5.30809100;2022-11-04T12:29:46;13.60;99.90
3332;DHT22;1678;50.94845400;5.30809100;2022-11-04T12:32:26;13.70;99.90
3332;DHT22;1678;50.94845400;5.30809100;2022-11-04T12:35:05;13.80;99.90
3332;DHT22;1678;50.94845400;5.30809100;2022-11-04T12:37:48;13.60;99.90
3332;DHT22;1678;50.94845400;5.30809100;2022-11-04T12:40:26;13.50;99.90
3332;DHT22;1678;50.94845400;5.30809100;2022-11-04T12:43:06;13.40;99.90
3332;DHT22;1678;50.94845400;5.30809100;2022-11-04T12:45:45;13.60;99.90
3332;DHT22;1678;50.94845400;5.30809100;2022-11-04T12:48:33;13.70;99.90
3332;DHT22;1678;50.94845400;5.30809100;2022-11-04T12:51:10;13.60;99.90
3332;DHT22;1678;50.94845400;5.30809100;2022-11-04T12:53:54;13.70;99.90
3332;DHT22;1678;50.94845400;5.30809100;2022-11-04T12:56:34;13.80;99.90
3332;DHT22;1678;50.94845400;5.30809100;2022-11-04T12:59:19;13.60;99.90
3332;DHT22;1678;50.94845400;5.30809100;2022-11-04T13:01:53;13.50;99.90
3332;DHT22;1678;50.94845400;5.30809100;2022-11-04T13:04:29;13.40;99.90
3332;DHT22;1678;50.94845400;5.30809100;2022-11-04T13:07:02;13.20;99.90
3332;DHT22;1678;50.94845400;5.30809100;2022-11-04T13:09:36;13.30;99.90
3332;DHT22;1678;50.94845400;5.30809100;2022-11-04T13:12:10;13.30;99.90
3332;DHT22;1678;50.94845400;5.30809100;2022-11-04T13:14:43;13.20;99.90
3332;DHT22;1678;50.94845400;5.30809100;2022-11-04T13:17:17;12.90;99.90
3332;DHT22;1678;50.94845400;5.30809100;2022-11-04T13:19:49;12.80;99.90
3332;DHT22;1678;50.94845400;5.30809100;2022-11-04T13:22:21;12.80;99.90
3332;DHT22;1678;50.94845400;5.30809100;2022-11-04T13:24:54;12.90;99.90
3332;DHT22;1678;50.94845400;5.30809100;2022-11-04T13:27:25;12.90;99.90
3332;DHT22;1678;50.94845400;5.30809100;2022-11-04T13:30:03;13.00;99.90
3332;DHT22;1678;50.94845400;5.30809100;2022-11-04T13:32:36;12.90;99.90
3332;DHT22;1678;50.94845400;5.30809100;2022-11-04T13:35:11;12.90;99.90
3332;DHT22;1678;50.94845400;5.30809100;2022-11-04T13:37:51;12.90;99.90
3332;DHT22;1678;50.94845400;5.30809100;2022-11-04T13:40:25;13.20;99.90
3332;DHT22;1678;50.94845400;5.30809100;2022-11-04T13:43:03;13.30;99.90
3332;DHT22;1678;50.94845400;5.30809100;2022-11-04T13:45:54;13.30;99.90
3332;DHT22;1678;50.94845400;5.30809100;2022-11-04T13:48:24;13.30;99.90
3332;DHT22;1678;50.94845400;5.30809100;2022-11-04T13:50:59;13.30;99.90
3332;DHT22;1678;50.94845400;5.30809100;2022-11-04T13:53:42;13.00;99.90
3332;DHT22;1678;50.94845400;5.30809100;2022-11-04T13:56:28;13.20;99.90
3332;DHT22;1678;50.94845400;5.30809100;2022-11-04T13:59:03;13.20;99.90
3332;DHT22;1678;50.94845400;5.30809100;2022-11-04T14:01:33;13.10;99.90
3332;DHT22;1678;50.94845400;5.30809100;2022-11-04T14:04:16;13.00;99.90
3332;DHT22;1678;50.94845400;5.30809100;2022-11-04T14:06:53;12.90;99.90
3332;DHT22;1678;50.94845400;5.30809100;2022-11-04T14:12:30;12.90;99.90
3332;DHT22;1678;50.94845400;5.30809100;2022-11-04T14:15:07;13.00;99.90
3332;DHT22;1678;50.94845400;5.30809100;2022-11-04T14:17:58;13.00;99.90
3332;DHT22;1678;50.94845400;5.30809100;2022-11-04T14:20:32;13.20;99.90
3332;DHT22;1678;50.94845400;5.30809100;2022-11-04T14:23:03;13.20;99.90
3332;DHT22;1678;50.94845400;5.30809100;2022-11-04T14:25:34;13.40;99.90
3332;DHT22;1678;50.94845400;5.30809100;2022-11-04T14:28:17;13.40;99.90
3332;DHT22;1678;50.94845400;5.30809100;2022-11-04T14:30:49;13.30;99.90
3332;DHT22;1678;50.94845400;5.30809100;2022-11-04T14:33:40;13.30;99.90
3332;DHT22;1678;50.94845400;5.30809100;2022-11-04T14:36:23;13.10;99.90